Time;durP1;ratioP1;P1;durP2;ratioP2;P2;SDS_P1;SDS_P2;PMS_P1;PMS_P2;Temp;Humidity;BMP_temperature;BMP_pressure;BME280_temperature;BME280_humidity;BME280_pressure;Samples;Min_cycle;Max_cycle;Signal;HPM_P1;HPM_P2
2021/06/07 00:02:13;;;;;;;17.85;15.82;;;;;;;19.90;71.11;100129.19;5029240;28;20032;-24
2021/06/07 00:04:39;;;;;;;18.65;15.65;;;;;;;19.97;70.95;100143.19;5029236;28;20030;-23
2021/06/07 00:07:06;;;;;;;16.63;14.75;;;;;;;19.90;70.93;100131.88;5029442;28;20535;-24
2021/06/07 00:09:31;;;;;;;18.00;14.65;;;;;;;20.13;69.97;100121.47;5029087;28;20052;-23
2021/06/07 00:11:58;;;;;;;19.05;15.13;;;;;;;20.14;70.25;100131.19;5029020;28;20037;-24
2021/06/07 00:14:29;;;;;;;17.20;15.32;;;;;;;20.34;69.48;100136.47;5027447;28;20029;-23
2021/06/07 00:16:55;;;;;;;17.83;14.43;;;;;;;20.43;68.57;100134.78;5029079;28;20045;-24
2021/06/07 00:19:21;;;;;;;18.45;14.10;;;;;;;20.15;69.66;100127.41;5029155;28;20823;-23
2021/06/07 00:21:46;;;;;;;17.30;15.38;;;;;;;20.39;69.06;100131.00;5028981;28;20029;-24
2021/06/07 00:24:12;;;;;;;17.63;15.60;;;;;;;20.62;67.52;100115.16;5028520;28;20044;-24
2021/06/07 00:26:38;;;;;;;17.50;15.45;;;;;;;20.17;69.76;100125.22;5028818;28;20040;-24
2021/06/07 00:29:04;;;;;;;18.25;15.10;;;;;;;19.93;70.70;100114.28;5027423;28;20025;-24
2021/06/07 00:31:30;;;;;;;19.58;15.65;;;;;;;19.82;71.43;100118.94;5028775;28;20108;-25
2021/06/07 00:33:55;;;;;;;18.27;16.17;;;;;;;19.54;72.33;100113.09;5029051;28;20029;-23
2021/06/07 00:36:22;;;;;;;17.92;16.05;;;;;;;19.50;72.57;100117.41;5028499;28;20030;-24
2021/06/07 00:38:51;;;;;;;21.23;17.35;;;;;;;19.46;72.46;100100.13;5028885;28;20603;-24
2021/06/07 00:41:16;;;;;;;19.63;17.25;;;;;;;19.50;72.54;100117.41;5027628;28;20029;-23
2021/06/07 00:43:42;;;;;;;23.77;19.80;;;;;;;19.43;73.08;100111.50;5028591;28;20095;-24
2021/06/07 00:46:07;;;;;;;22.95;20.08;;;;;;;19.72;72.08;100102.75;5028503;28;20426;-24
2021/06/07 00:48:33;;;;;;;25.75;20.60;;;;;;;20.25;70.17;100111.09;5026896;28;20022;-23
2021/06/07 00:51:07;;;;;;;23.63;20.98;;;;;;;20.31;69.26;100091.00;5027510;28;20060;-24
2021/06/07 00:53:32;;;;;;;23.65;20.98;;;;;;;20.17;70.27;100111.69;5028438;28;20057;-25
2021/06/07 00:56:00;;;;;;;25.05;21.30;;;;;;;19.67;72.43;100098.94;5028645;28;20029;-24
2021/06/07 00:58:33;;;;;;;24.00;21.23;;;;;;;19.60;72.56;100103.84;5028455;28;20039;-24
2021/06/07 01:00:59;;;;;;;26.42;20.70;;;;;;;19.71;72.24;100101.13;5027270;28;20063;-24
2021/06/07 01:03:24;;;;;;;24.70;21.33;;;;;;;19.89;71.57;100097.78;5028183;28;20037;-24
2021/06/07 01:05:50;;;;;;;24.40;20.88;;;;;;;19.65;72.15;100095.69;5028203;28;20100;-24
2021/06/07 01:08:16;;;;;;;26.20;21.35;;;;;;;19.79;71.29;100095.13;5028281;28;20064;-24
2021/06/07 01:10:42;;;;;;;24.15;21.55;;;;;;;20.33;69.51;100106.94;5028232;28;20084;-24
2021/06/07 01:13:08;;;;;;;22.40;20.00;;;;;;;20.50;68.38;100095.72;5028872;28;20037;-23
2021/06/07 01:15:33;;;;;;;25.02;19.67;;;;;;;20.36;69.20;100115.31;5028365;28;20386;-24
2021/06/07 01:17:59;;;;;;;25.60;20.90;;;;;;;20.03;70.48;100115.00;5027911;28;20087;-24
2021/06/07 01:20:26;;;;;;;28.05;21.20;;;;;;;20.28;69.52;100103.19;5026605;28;20026;-24
2021/06/07 01:22:53;;;;;;;24.23;20.63;;;;;;;20.26;69.43;100086.41;5026724;28;20557;-23
2021/06/07 01:25:21;;;;;;;25.75;20.40;;;;;;;20.36;68.81;100096.34;5026590;28;20026;-25
2021/06/07 01:27:47;;;;;;;23.70;19.70;;;;;;;20.74;67.64;100102.03;5028060;28;20041;-24
2021/06/07 01:30:15;;;;;;;23.55;19.73;;;;;;;20.31;68.92;100076.63;5028019;28;20044;-24
2021/06/07 01:32:41;;;;;;;23.33;19.35;;;;;;;19.89;71.17;100089.66;5027908;28;20029;-23
2021/06/07 01:35:07;;;;;;;24.35;18.85;;;;;;;19.54;72.13;100079.81;5027962;28;20060;-24
2021/06/07 01:37:33;;;;;;;21.33;19.08;;;;;;;19.59;72.36;100096.81;5026492;28;20034;-23
2021/06/07 01:39:58;;;;;;;24.40;20.67;;;;;;;19.48;72.71;100097.97;5027862;28;20017;-24
2021/06/07 01:42:24;;;;;;;23.63;19.17;;;;;;;19.78;71.45;100102.44;5027697;28;20497;-23
2021/06/07 01:44:49;;;;;;;26.55;21.38;;;;;;;20.38;69.04;100105.00;5028025;28;20501;-24
2021/06/07 01:47:15;;;;;;;25.85;20.08;;;;;;;20.26;69.04;100091.03;5027878;28;20036;-23
2021/06/07 01:49:40;;;;;;;21.63;18.60;;;;;;;20.33;69.05;100106.94;5027790;28;20033;-24
2021/06/07 01:52:06;;;;;;;25.27;19.67;;;;;;;20.26;69.45;100109.97;5027799;28;20061;-24
2021/06/07 01:54:31;;;;;;;23.30;19.83;;;;;;;20.50;67.78;100085.69;5027688;28;20030;-23
2021/06/07 01:56:57;;;;;;;24.30;20.98;;;;;;;20.48;68.08;100096.78;5027796;28;20398;-24
2021/06/07 01:59:22;;;;;;;34.60;21.23;;;;;;;20.48;68.13;100104.13;5027684;28;20033;-24
2021/06/07 02:01:48;;;;;;;25.55;20.20;;;;;;;20.20;69.70;100103.78;5028180;28;20033;-25
2021/06/07 02:04:13;;;;;;;24.40;20.02;;;;;;;19.79;71.08;100114.06;5031722;28;20628;-24
2021/06/07 02:06:39;;;;;;;22.30;19.48;;;;;;;19.57;71.77;100088.16;5031283;28;20033;-23
2021/06/07 02:09:05;;;;;;;22.38;18.30;;;;;;;19.41;73.09;100113.66;5031659;28;20037;-24
2021/06/07 02:11:30;;;;;;;22.63;19.95;;;;;;;19.41;72.88;100109.09;5030491;28;20045;-23
2021/06/07 02:14:06;;;;;;;25.42;20.45;;;;;;;19.02;74.11;100103.50;5031286;28;20421;-24
2021/06/07 02:16:36;;;;;;;23.80;19.85;;;;;;;19.14;74.01;100120.25;5031067;28;20037;-24
2021/06/07 02:19:03;;;;;;;27.33;19.33;;;;;;;19.34;72.93;100116.66;5029915;28;20037;-23
2021/06/07 02:21:28;;;;;;;26.00;21.17;;;;;;;20.00;70.36;100110.16;5031050;28;20033;-24
2021/06/07 02:23:54;;;;;;;26.27;20.63;;;;;;;20.38;68.39;100102.31;5031259;28;20091;-24
2021/06/07 02:26:19;;;;;;;32.60;21.48;;;;;;;20.45;68.27;100116.34;5031037;28;20037;-24
2021/06/07 02:28:50;;;;;;;26.23;20.85;;;;;;;20.41;68.47;100112.59;5031137;28;20083;-25
2021/06/07 02:31:16;;;;;;;34.00;20.48;;;;;;;19.85;70.78;100107.53;5030941;28;20413;-24
2021/06/07 02:33:41;;;;;;;26.85;20.23;;;;;;;19.83;70.00;100093.47;5030785;28;20036;-24
2021/06/07 02:36:07;;;;;;;26.45;20.10;;;;;;;20.31;68.62;100099.13;5031114;28;20461;-24
2021/06/07 02:38:32;;;;;;;27.98;21.17;;;;;;;20.28;68.95;100105.88;5029696;28;20025;-25
2021/06/07 02:40:58;;;;;;;23.65;20.02;;;;;;;20.20;68.71;100113.81;5029946;28;20040;-24
2021/06/07 02:43:23;;;;;;;23.73;19.98;;;;;;;20.74;66.51;100121.00;5030769;28;20026;-23
2021/06/07 02:45:49;;;;;;;28.70;21.58;;;;;;;20.70;66.74;100117.25;5030909;28;20037;-23
2021/06/07 02:48:14;;;;;;;25.60;22.25;;;;;;;20.47;67.79;100121.44;5030396;28;20055;-24
2021/06/07 02:50:42;;;;;;;25.00;21.50;;;;;;;20.46;67.44;100111.72;5030504;28;20041;-23
2021/06/07 02:53:08;;;;;;;27.80;22.52;;;;;;;20.43;67.85;100107.69;5029312;28;20061;-23
2021/06/07 02:55:36;;;;;;;26.38;22.67;;;;;;;20.23;69.22;100124.91;5030715;28;20030;-24
2021/06/07 02:58:01;;;;;;;26.60;21.75;;;;;;;20.12;69.68;100125.25;5030532;28;20048;-24
2021/06/07 03:00:33;;;;;;;24.70;20.90;;;;;;;20.17;69.63;100130.63;5030286;28;20034;-23
2021/06/07 03:02:59;;;;;;;31.00;21.95;;;;;;;19.90;70.46;100121.06;5030385;28;20045;-24
2021/06/07 03:05:24;;;;;;;29.83;20.70;;;;;;;20.08;69.87;100111.44;5030505;28;20405;-24
2021/06/07 03:07:50;;;;;;;23.88;21.30;;;;;;;19.72;70.76;100095.44;5030281;28;20040;-23
2021/06/07 03:10:16;;;;;;;24.63;21.13;;;;;;;19.54;71.77;100106.88;5030374;28;20033;-23
2021/06/07 03:12:41;;;;;;;22.92;20.20;;;;;;;19.27;73.25;100094.53;5030262;28;20057;-23
2021/06/07 03:15:08;;;;;;;24.35;20.20;;;;;;;19.09;74.50;100122.97;5029140;28;20026;-24
2021/06/07 03:17:34;;;;;;;23.95;20.50;;;;;;;19.25;73.68;100108.31;5028771;28;20041;-25
2021/06/07 03:19:59;;;;;;;26.90;21.17;;;;;;;19.36;73.42;100114.50;5030187;28;20028;-24
2021/06/07 03:22:25;;;;;;;28.27;21.42;;;;;;;19.84;71.47;100111.34;5030259;28;20485;-23
2021/06/07 03:24:50;;;;;;;43.85;36.15;;;;;;;20.37;69.00;100111.53;5030157;28;20036;-24
2021/06/07 03:27:16;;;;;;;36.10;29.17;;;;;;;20.50;68.54;100118.19;5030054;28;20044;-24
2021/06/07 03:29:42;;;;;;;29.63;22.88;;;;;;;20.71;67.80;100128.88;5029981;28;20024;-24
2021/06/07 03:32:08;;;;;;;29.35;22.00;;;;;;;20.43;68.81;100123.94;5029321;28;20029;-24
2021/06/07 03:34:33;;;;;;;27.25;21.50;;;;;;;20.63;68.07;100141.13;5029633;28;20105;-24
2021/06/07 03:36:59;;;;;;;27.30;22.38;;;;;;;20.42;68.68;100138.56;5030451;28;20052;-24
2021/06/07 03:39:24;;;;;;;28.42;21.02;;;;;;;20.48;67.96;100126.59;5029907;28;20021;-24
2021/06/07 03:41:50;;;;;;;24.83;19.42;;;;;;;20.33;68.78;100140.28;5029756;28;20484;-24
2021/06/07 03:44:15;;;;;;;27.92;20.48;;;;;;;20.34;69.19;100135.66;5028277;28;20030;-24
2021/06/07 03:46:41;;;;;;;26.25;19.50;;;;;;;20.59;68.21;100142.78;5029553;28;20472;-24
2021/06/07 03:49:06;;;;;;;26.00;20.17;;;;;;;20.51;68.63;100146.09;5029909;28;20026;-24
2021/06/07 03:51:33;;;;;;;30.45;19.75;;;;;;;20.07;70.07;100148.56;5028275;28;20041;-23
2021/06/07 03:53:59;;;;;;;26.60;20.67;;;;;;;20.07;70.09;100142.34;5029529;28;20422;-24
2021/06/07 03:56:24;;;;;;;26.80;20.50;;;;;;;20.42;68.75;100151.31;5029373;28;20034;-24
2021/06/07 03:58:50;;;;;;;24.20;18.52;;;;;;;20.17;69.76;100141.47;5029346;28;20025;-24
2021/06/07 04:01:15;;;;;;;27.13;19.17;;;;;;;19.92;70.69;100145.94;5029203;28;20099;-24
2021/06/07 04:03:40;;;;;;;26.45;19.05;;;;;;;19.80;71.01;100131.94;5029813;28;20549;-24
2021/06/07 04:06:06;;;;;;;26.40;20.45;;;;;;;19.68;72.20;100143.06;5029482;28;20083;-24
2021/06/07 04:08:31;;;;;;;25.10;21.40;;;;;;;19.27;73.33;100137.78;5029140;28;20026;-24
2021/06/07 04:10:57;;;;;;;24.45;20.65;;;;;;;18.92;74.42;100123.28;5029178;28;20025;-25
2021/06/07 04:13:22;;;;;;;22.83;20.38;;;;;;;18.98;74.04;100132.16;5029495;28;20043;-23
2021/06/07 04:15:48;;;;;;;24.70;20.20;;;;;;;19.03;74.48;100142.97;5028852;28;20033;-23
2021/06/07 04:18:13;;;;;;;24.42;18.90;;;;;;;19.34;73.05;100141.00;5027580;28;20083;-24
2021/06/07 04:20:39;;;;;;;28.35;19.92;;;;;;;19.91;71.03;100152.44;5029169;28;20030;-23
2021/06/07 04:23:04;;;;;;;26.02;20.20;;;;;;;19.37;72.75;100140.47;5028993;28;20029;-23
2021/06/07 04:25:30;;;;;;;26.33;19.58;;;;;;;19.14;73.52;100141.88;5028707;28;20033;-24
2021/06/07 04:27:56;;;;;;;25.42;19.77;;;;;;;18.92;74.92;100160.28;5027710;28;20547;-23
2021/06/07 04:30:22;;;;;;;25.35;20.30;;;;;;;18.74;75.98;100151.63;5028519;28;20095;-24
2021/06/07 04:32:48;;;;;;;27.45;21.80;;;;;;;18.83;76.13;100157.31;5028697;28;20029;-23
2021/06/07 04:35:14;;;;;;;27.63;22.70;;;;;;;18.65;76.78;100158.63;5027585;28;20408;-24
2021/06/07 04:37:49;;;;;;;27.42;23.10;;;;;;;19.24;74.71;100152.66;5028730;28;20032;-24
2021/06/07 04:40:15;;;;;;;28.00;23.55;;;;;;;19.61;72.48;100135.22;5028399;28;20026;-24
2021/06/07 04:42:40;;;;;;;29.73;23.08;;;;;;;20.13;70.93;100156.66;5028922;28;20036;-24
2021/06/07 04:45:07;;;;;;;31.27;22.85;;;;;;;20.40;70.15;100156.19;5028511;28;20104;-24
2021/06/07 04:47:32;;;;;;;30.52;23.10;;;;;;;20.40;70.02;100146.16;5028703;28;20033;-24
2021/06/07 04:49:58;;;;;;;29.48;23.75;;;;;;;20.79;68.66;100158.09;5028660;28;20437;-24
2021/06/07 04:52:23;;;;;;;29.08;24.50;;;;;;;20.99;67.48;100157.88;5028031;28;20449;-24
2021/06/07 04:54:49;;;;;;;30.70;23.65;;;;;;;20.60;68.66;100157.97;5028434;28;20411;-24
2021/06/07 04:57:15;;;;;;;29.42;23.27;;;;;;;20.53;69.53;100162.88;5028354;28;20033;-24
2021/06/07 04:59:40;;;;;;;30.55;23.73;;;;;;;19.67;72.32;100161.16;5028001;28;20030;-24
2021/06/07 05:02:06;;;;;;;27.13;22.65;;;;;;;20.18;71.34;100170.16;5028533;28;20033;-24
2021/06/07 05:04:31;;;;;;;29.52;24.50;;;;;;;20.10;71.27;100176.16;5026965;28;20033;-24
2021/06/07 05:06:57;;;;;;;30.17;24.67;;;;;;;19.98;71.80;100177.31;5028236;28;20429;-24
2021/06/07 05:09:22;;;;;;;31.88;25.55;;;;;;;20.20;71.31;100181.50;5028558;28;20040;-23
2021/06/07 05:11:48;;;;;;;31.90;25.98;;;;;;;20.80;68.85;100186.78;5028218;28;20042;-24
2021/06/07 05:14:13;;;;;;;36.15;26.73;;;;;;;20.88;68.74;100180.75;5027952;28;20028;-24
2021/06/07 05:16:39;;;;;;;35.42;26.52;;;;;;;20.66;69.24;100178.53;5028067;28;20048;-23
2021/06/07 05:19:04;;;;;;;35.42;27.58;;;;;;;20.93;68.74;100186.16;5028270;28;20553;-24
2021/06/07 05:21:30;;;;;;;33.60;27.23;;;;;;;21.03;67.91;100191.47;5028231;28;20025;-24
2021/06/07 05:23:55;;;;;;;37.38;28.50;;;;;;;21.15;67.67;100193.81;5028061;28;20040;-24
2021/06/07 05:26:21;;;;;;;36.08;28.10;;;;;;;21.07;67.67;100191.72;5027694;28;20421;-24
2021/06/07 05:28:46;;;;;;;34.83;27.17;;;;;;;21.36;67.15;100193.59;5027943;28;20034;-24
2021/06/07 05:31:12;;;;;;;31.98;27.83;;;;;;;20.94;67.75;100187.75;5027746;28;20726;-24
2021/06/07 05:33:37;;;;;;;37.90;27.50;;;;;;;21.25;65.93;100204.56;5027999;28;20032;-23
2021/06/07 05:36:03;;;;;;;33.30;28.02;;;;;;;21.17;66.82;100210.59;5027908;28;20432;-24
2021/06/07 05:38:28;;;;;;;35.50;28.73;;;;;;;21.05;67.40;100204.75;5030951;28;20036;-24
2021/06/07 05:40:54;;;;;;;36.15;29.70;;;;;;;21.04;67.49;100203.13;5031951;28;20110;-24
2021/06/07 05:43:23;;;;;;;35.55;28.20;;;;;;;21.06;67.01;100190.09;5032011;28;20040;-25
2021/06/07 05:45:49;;;;;;;38.17;30.17;;;;;;;21.48;65.71;100198.66;5031995;28;20037;-24
2021/06/07 05:48:15;;;;;;;40.92;32.90;;;;;;;21.45;65.96;100200.84;5030466;28;20033;-25
2021/06/07 05:50:40;;;;;;;43.05;33.58;;;;;;;21.71;65.39;100197.03;5032597;28;20033;-23
2021/06/07 05:53:06;;;;;;;39.08;29.50;;;;;;;21.84;64.54;100196.31;5031988;28;20054;-23
2021/06/07 05:55:37;;;;;;;34.08;28.85;;;;;;;21.51;65.63;100184.50;5031717;28;20036;-23
2021/06/07 05:58:11;;;;;;;31.60;25.13;;;;;;;20.91;67.80;100177.47;5031595;28;20029;-24
2021/06/07 06:00:39;;;;;;;53.20;39.40;;;;;;;21.14;67.04;100202.22;5031840;28;20026;-23
2021/06/07 06:03:05;;;;;;;41.38;33.10;;;;;;;21.46;66.32;100190.81;5031633;28;20033;-24
2021/06/07 06:05:30;;;;;;;37.75;28.15;;;;;;;21.50;65.39;100194.56;5031576;28;20104;-24
2021/06/07 06:07:56;;;;;;;36.55;29.40;;;;;;;21.48;65.16;100196.75;5031495;28;20037;-24
2021/06/07 06:10:21;;;;;;;31.30;26.52;;;;;;;21.45;66.30;100200.03;5030948;28;20025;-26
2021/06/07 06:12:47;;;;;;;34.75;26.13;;;;;;;21.22;66.83;100194.25;5031603;28;20434;-23
2021/06/07 06:15:14;;;;;;;38.22;29.40;;;;;;;21.16;67.66;100194.59;5030040;28;20489;-24
2021/06/07 06:17:39;;;;;;;35.88;27.98;;;;;;;21.01;66.97;100190.16;5031465;28;20104;-24
2021/06/07 06:20:06;;;;;;;27.98;24.52;;;;;;;20.98;67.39;100193.41;5031464;28;20108;-24
2021/06/07 06:22:31;;;;;;;30.13;25.17;;;;;;;21.10;67.09;100191.13;5031264;28;20025;-24
2021/06/07 06:24:57;;;;;;;32.17;26.23;;;;;;;21.28;66.64;100203.16;5031130;28;20418;-24
2021/06/07 06:27:22;;;;;;;31.10;25.58;;;;;;;21.28;66.66;100203.16;5031052;28;20037;-24
2021/06/07 06:29:48;;;;;;;39.83;26.63;;;;;;;21.21;66.64;100189.94;5031093;28;20029;-24
2021/06/07 06:32:13;;;;;;;28.73;24.15;;;;;;;21.28;67.55;100209.38;5030917;28;20399;-24
2021/06/07 06:34:39;;;;;;;28.27;23.35;;;;;;;21.08;67.41;100204.16;5031011;28;20036;-24
2021/06/07 06:37:05;;;;;;;27.25;23.08;;;;;;;20.96;68.39;100212.66;5030896;28;20034;-24
2021/06/07 06:39:30;;;;;;;26.42;22.83;;;;;;;20.86;67.65;100213.59;5030687;28;20053;-24
2021/06/07 06:41:56;;;;;;;28.98;24.75;;;;;;;21.00;67.68;100196.66;5033299;28;20045;-24
2021/06/07 06:44:21;;;;;;;25.48;21.92;;;;;;;20.94;66.87;100198.59;5030783;28;20036;-24
2021/06/07 06:46:47;;;;;;;24.73;21.70;;;;;;;21.11;65.92;100200.09;5030730;28;20038;-24
2021/06/07 06:49:12;;;;;;;24.35;21.63;;;;;;;20.77;66.62;100188.16;5030632;28;20026;-24
2021/06/07 06:51:38;;;;;;;28.67;22.27;;;;;;;20.85;67.34;100209.25;5030786;28;20474;-24
2021/06/07 06:54:03;;;;;;;26.05;22.90;;;;;;;21.35;66.57;100213.66;5030426;28;20057;-25
2021/06/07 06:56:29;;;;;;;27.08;22.33;;;;;;;21.22;66.86;100205.09;5030442;28;20135;-25
2021/06/07 06:58:55;;;;;;;26.08;21.00;;;;;;;21.34;66.55;100214.78;5030853;28;20030;-24
2021/06/07 07:01:20;;;;;;;28.35;22.83;;;;;;;21.53;66.71;100210.25;5030468;28;20426;-24
2021/06/07 07:03:47;;;;;;;22.55;20.20;;;;;;;21.48;65.56;100213.03;5030361;28;20040;-24
2021/06/07 07:06:13;;;;;;;24.92;20.80;;;;;;;21.62;65.60;100202.28;5030524;28;20490;-24
2021/06/07 07:08:38;;;;;;;23.33;19.65;;;;;;;21.53;66.28;100218.38;5030264;28;20097;-24
2021/06/07 07:11:04;;;;;;;22.92;19.80;;;;;;;21.86;64.46;100218.53;5028964;28;20064;-24
2021/06/07 07:13:29;;;;;;;22.73;18.85;;;;;;;22.09;63.57;100211.47;5030428;28;20489;-24
2021/06/07 07:15:55;;;;;;;19.70;17.40;;;;;;;21.80;63.00;100204.25;5029900;28;20084;-24
2021/06/07 07:18:20;;;;;;;21.65;17.52;;;;;;;21.63;63.88;100214.75;5029986;28;20026;-24
2021/06/07 07:20:46;;;;;;;21.05;17.00;;;;;;;21.77;63.65;100215.66;5030057;28;20053;-24
2021/06/07 07:23:12;;;;;;;21.75;17.52;;;;;;;21.95;63.42;100214.09;5030044;28;20029;-24
2021/06/07 07:25:37;;;;;;;19.13;16.38;;;;;;;21.88;62.58;100210.91;5030126;28;20037;-24
2021/06/07 07:28:07;;;;;;;23.20;17.10;;;;;;;21.94;63.53;100220.63;5030212;28;20493;-25
2021/06/07 07:30:34;;;;;;;17.55;15.75;;;;;;;21.89;62.79;100207.13;5029784;28;20048;-24
2021/06/07 07:33:00;;;;;;;21.35;16.80;;;;;;;21.81;61.72;100211.28;5030026;28;20063;-23
2021/06/07 07:35:25;;;;;;;18.98;16.15;;;;;;;21.96;62.51;100228.47;5029919;28;20073;-24
2021/06/07 07:37:51;;;;;;;18.42;16.05;;;;;;;22.04;62.55;100216.97;5029680;28;20025;-24
2021/06/07 07:40:18;;;;;;;19.17;15.93;;;;;;;21.63;63.95;100218.28;5029321;28;20029;-24
2021/06/07 07:42:44;;;;;;;20.97;15.97;;;;;;;21.77;63.90;100217.59;5029872;28;20037;-24
2021/06/07 07:45:11;;;;;;;19.38;17.23;;;;;;;22.11;62.26;100224.75;5029731;28;20272;-24
2021/06/07 07:47:37;;;;;;;18.55;16.65;;;;;;;21.96;63.52;100242.84;5029538;28;20025;-24
2021/06/07 07:50:07;;;;;;;19.98;17.05;;;;;;;21.89;63.04;100226.13;5029682;28;20035;-24
2021/06/07 07:52:33;;;;;;;19.83;17.25;;;;;;;21.70;63.89;100222.53;5029214;28;20061;-24
2021/06/07 07:54:58;;;;;;;21.95;17.58;;;;;;;22.15;63.08;100247.50;5029384;28;20085;-24
2021/06/07 07:57:25;;;;;;;19.98;17.63;;;;;;;22.11;63.33;100252.75;5029515;28;20869;-25
2021/06/07 07:59:50;;;;;;;22.23;17.38;;;;;;;22.32;63.62;100242.44;5028821;28;20033;-24
2021/06/07 08:02:16;;;;;;;18.33;16.42;;;;;;;21.95;63.63;100226.88;5029340;28;20076;-24
2021/06/07 08:04:41;;;;;;;19.27;16.80;;;;;;;22.33;63.28;100244.06;5026985;28;20063;-23
2021/06/07 08:07:07;;;;;;;18.40;16.45;;;;;;;21.97;63.39;100225.47;5029060;28;20033;-24
2021/06/07 08:09:32;;;;;;;18.77;16.60;;;;;;;22.29;62.40;100234.84;5029473;28;20029;-25
2021/06/07 08:11:59;;;;;;;18.25;16.25;;;;;;;22.60;61.75;100242.59;5029248;28;20469;-24
2021/06/07 08:14:24;;;;;;;18.65;16.55;;;;;;;22.28;63.20;100233.25;5028753;28;20163;-24
2021/06/07 08:16:50;;;;;;;18.83;16.83;;;;;;;22.35;62.56;100239.16;5028824;28;20029;-24
2021/06/07 08:19:15;;;;;;;18.10;15.77;;;;;;;22.77;61.20;100248.28;5028938;28;20029;-24
2021/06/07 08:21:41;;;;;;;18.20;16.27;;;;;;;22.49;62.56;100236.47;5028409;28;20033;-24
2021/06/07 08:24:07;;;;;;;19.15;16.15;;;;;;;22.51;62.20;100239.69;5028521;28;20032;-24
2021/06/07 08:26:33;;;;;;;17.25;15.40;;;;;;;22.19;62.33;100234.97;5028720;28;20454;-24
2021/06/07 08:28:58;;;;;;;17.52;15.73;;;;;;;21.56;64.16;100223.25;5028562;28;20143;-24
2021/06/07 08:31:24;;;;;;;18.60;15.07;;;;;;;21.75;63.86;100219.78;5028908;28;20041;-24
2021/06/07 08:33:49;;;;;;;18.67;16.38;;;;;;;21.77;64.79;100242.81;5028560;28;20077;-24
2021/06/07 08:36:15;;;;;;;18.33;15.25;;;;;;;21.61;63.75;100225.88;5028313;28;20037;-26
2021/06/07 08:38:41;;;;;;;18.23;16.23;;;;;;;21.90;64.84;100246.72;5027650;28;20091;-24
2021/06/07 08:41:08;;;;;;;19.83;16.50;;;;;;;21.78;65.29;100227.34;5029009;28;20227;-24
2021/06/07 08:43:33;;;;;;;18.80;16.10;;;;;;;21.56;65.37;100214.31;5028723;28;20041;-24
2021/06/07 08:45:59;;;;;;;19.50;16.23;;;;;;;21.54;65.65;100244.44;5028786;28;20041;-24
2021/06/07 08:48:24;;;;;;;20.02;15.73;;;;;;;21.58;65.79;100234.63;5028157;28;20029;-24
2021/06/07 08:50:50;;;;;;;19.98;15.43;;;;;;;21.73;65.33;100240.97;5028116;28;20042;-24
2021/06/07 08:53:15;;;;;;;17.58;15.38;;;;;;;21.80;64.65;100236.81;5028402;28;20633;-24
2021/06/07 08:55:41;;;;;;;17.00;15.20;;;;;;;22.29;62.24;100232.13;5028404;28;20029;-24
2021/06/07 08:58:06;;;;;;;17.38;14.55;;;;;;;22.23;62.09;100244.13;5028231;28;20041;-26
2021/06/07 09:00:35;;;;;;;18.90;14.77;;;;;;;22.01;61.75;100226.50;5028044;28;20390;-25
2021/06/07 09:03:04;;;;;;;16.10;14.40;;;;;;;22.20;61.09;100220.28;5028167;28;20037;-24
2021/06/07 09:05:30;;;;;;;17.15;15.32;;;;;;;22.49;61.21;100243.81;5027923;28;20033;-24
2021/06/07 09:07:58;;;;;;;16.95;15.15;;;;;;;22.61;62.22;100238.75;5028325;28;20041;-24
2021/06/07 09:10:25;;;;;;;16.50;14.70;;;;;;;22.40;60.08;100228.19;5027956;28;20084;-24
2021/06/07 09:12:52;;;;;;;18.52;16.58;;;;;;;22.78;61.57;100240.94;5027418;28;20041;-24
2021/06/07 09:15:46;;;;;;;18.92;16.60;;;;;;;22.41;63.21;100228.97;5028227;28;20473;-24
2021/06/07 09:18:14;;;;;;;26.73;21.05;;;;;;;22.39;62.43;100210.28;5027686;28;20041;-24
2021/06/07 09:20:40;;;;;;;21.05;17.83;;;;;;;22.49;60.99;100224.81;5028414;28;20908;-24
2021/06/07 09:23:12;;;;;;;19.15;17.17;;;;;;;22.23;63.87;100228.69;5028046;28;20493;-24
2021/06/07 09:25:39;;;;;;;20.58;18.08;;;;;;;22.33;63.05;100202.47;5028089;28;20067;-24
2021/06/07 09:28:07;;;;;;;22.02;19.70;;;;;;;22.86;61.26;100219.34;5027799;28;20033;-24
2021/06/07 09:30:37;;;;;;;;;;;;;;;22.97;61.66;100228.13;5027958;28;20061;-24
2021/06/07 09:33:30;;;;;;;22.92;19.35;;;;;;;23.14;61.73;100222.13;5027958;28;19909;-24
2021/06/07 09:36:10;;;;;;;22.55;18.60;;;;;;;23.09;62.60;100208.66;5027941;28;20041;-24
2021/06/07 09:38:55;;;;;;;19.95;17.35;;;;;;;22.96;62.93;100212.91;5027652;28;20026;-24
2021/06/07 09:41:21;;;;;;;20.40;16.85;;;;;;;22.98;63.34;100209.88;5028185;28;20033;-24
2021/06/07 09:44:25;;;;;;;18.42;16.52;;;;;;;23.10;62.04;100207.53;5028136;28;20025;-26
2021/06/07 09:46:52;;;;;;;19.98;16.15;;;;;;;23.26;61.39;100200.69;5026596;28;20191;-24
2021/06/07 09:49:20;;;;;;;17.58;15.77;;;;;;;23.07;61.20;100208.13;5026386;28;20038;-24
2021/06/07 09:51:56;;;;;;;15.80;14.05;;;;;;;22.69;62.62;100210.91;5027685;28;20045;-24
2021/06/07 09:54:22;;;;;;;18.90;15.20;;;;;;;22.59;63.28;100202.91;5027620;28;20505;-24
2021/06/07 09:56:58;;;;;;;16.27;14.50;;;;;;;23.00;62.76;100192.16;5029465;28;20036;-24
2021/06/07 09:59:27;;;;;;;16.63;14.90;;;;;;;23.20;62.22;100201.91;5027839;28;20401;-24
2021/06/07 10:01:55;;;;;;;15.85;14.25;;;;;;;23.19;62.16;100200.31;5027364;28;20040;-24
2021/06/07 10:04:21;;;;;;;15.27;13.57;;;;;;;22.88;62.65;100183.66;5027528;28;20034;-24
2021/06/07 10:06:46;;;;;;;17.65;13.32;;;;;;;23.18;62.11;100190.50;5027481;28;20038;-24
2021/06/07 10:09:14;;;;;;;15.05;13.43;;;;;;;23.10;62.05;100190.41;5027571;28;20040;-24
2021/06/07 10:11:41;;;;;;;14.30;12.85;;;;;;;23.07;60.78;100180.94;5027417;28;20496;-24
2021/06/07 10:14:11;;;;;;;13.15;11.85;;;;;;;23.21;61.03;100189.94;5027255;28;20120;-24
2021/06/07 10:16:37;;;;;;;14.90;11.52;;;;;;;22.77;61.30;100182.25;5026458;28;20398;-24
2021/06/07 10:19:06;;;;;;;13.13;11.68;;;;;;;22.91;61.48;100177.63;5027482;28;20096;-24
2021/06/07 10:21:31;;;;;;;12.38;11.07;;;;;;;22.96;61.02;100174.03;5027395;28;20033;-25
2021/06/07 10:23:57;;;;;;;11.93;10.63;;;;;;;22.92;59.93;100156.69;5029619;28;20484;-24
2021/06/07 10:26:22;;;;;;;12.05;10.80;;;;;;;23.18;59.75;100173.38;5030915;28;20029;-24
2021/06/07 10:28:52;;;;;;;12.85;11.38;;;;;;;23.32;59.69;100176.13;5030826;28;20037;-24
2021/06/07 10:31:18;;;;;;;12.93;11.45;;;;;;;23.36;59.76;100167.06;5029943;28;20125;-24
2021/06/07 10:33:56;;;;;;;11.93;10.68;;;;;;;23.36;58.79;100168.97;5031451;28;20037;-24
2021/06/07 10:36:21;;;;;;;13.25;11.95;;;;;;;23.47;59.07;100167.66;5030705;28;20037;-24
2021/06/07 10:38:47;;;;;;;14.27;11.57;;;;;;;23.35;58.14;100159.97;5030719;28;20031;-25
2021/06/07 10:41:19;;;;;;;13.23;11.50;;;;;;;23.37;59.24;100154.25;5030716;28;20033;-25
2021/06/07 10:43:50;;;;;;;13.57;11.68;;;;;;;23.36;59.12;100168.97;5031090;28;20448;-24
2021/06/07 10:46:39;;;;;;;13.77;12.35;;;;;;;23.91;58.34;100160.78;5030592;28;20034;-24
2021/06/07 10:49:25;;;;;;;14.45;13.05;;;;;;;23.19;60.70;100159.50;5030669;28;20033;-24
2021/06/07 10:52:05;;;;;;;15.77;13.80;;;;;;;24.00;58.05;100152.69;5030353;28;20488;-23
2021/06/07 10:54:31;;;;;;;14.85;12.30;;;;;;;24.32;58.23;100148.16;5030561;28;20068;-24
2021/06/07 10:57:22;;;;;;;12.77;10.80;;;;;;;24.64;56.25;100153.38;5030666;28;20039;-25
2021/06/07 10:59:48;;;;;;;12.77;11.50;;;;;;;23.64;58.49;100135.19;5030385;28;20040;-24
2021/06/07 11:02:20;;;;;;;13.68;12.25;;;;;;;23.85;57.56;100151.91;5030179;28;20490;-24
2021/06/07 11:04:46;;;;;;;17.10;12.68;;;;;;;23.99;57.32;100145.66;5030381;28;20516;-24
2021/06/07 11:07:18;;;;;;;17.25;15.15;;;;;;;23.51;60.42;100146.88;5030433;28;20037;-24
2021/06/07 11:10:11;;;;;;;15.30;13.77;;;;;;;23.05;62.23;100154.03;5030276;28;20529;-24